Time;durP1;ratioP1;P1;durP2;ratioP2;P2;SDS_P1;SDS_P2;PMS_P1;PMS_P2;Temp;Humidity;BMP_temperature;BMP_pressure;BME280_temperature;BME280_humidity;BME280_pressure;Samples;Min_cycle;Max_cycle;Signal;HPM_P1;HPM_P2
2022/06/10 00:00:40;;;;;;;7.32;2.60;;;;;;;;;;5005849;28;20333;-69
2022/06/10 00:03:07;;;;;;;11.07;3.00;;;;;;;;;;5006979;28;20187;-70
2022/06/10 00:05:36;;;;;;;8.02;2.80;;;;;;;;;;5004360;28;20183;-69
2022/06/10 00:08:03;;;;;;;6.95;2.70;;;;;;;;;;5003000;28;20186;-70
2022/06/10 00:10:28;;;;;;;6.88;2.70;;;;;;;;;;5003511;28;20275;-70
2022/06/10 00:12:54;;;;;;;8.05;2.40;;;;;;;;;;5006895;28;20274;-70
2022/06/10 00:15:19;;;;;;;9.75;2.72;;;;;;;;;;5003748;28;20582;-70
2022/06/10 00:17:45;;;;;;;8.57;2.53;;;;;;;;;;5004083;28;20210;-70
2022/06/10 00:20:13;;;;;;;10.23;2.50;;;;;;;;;;5007759;28;20210;-69
2022/06/10 00:22:39;;;;;;;6.10;3.10;;;;;;;;;;5005364;28;20195;-69
2022/06/10 00:25:06;;;;;;;7.10;2.97;;;;;;;;;;5003980;28;20235;-69
2022/06/10 00:27:32;;;;;;;5.07;2.90;;;;;;;;;;5006218;28;20182;-69
2022/06/10 00:29:57;;;;;;;7.20;3.00;;;;;;;;;;5008419;28;20179;-69
2022/06/10 00:32:23;;;;;;;6.00;2.67;;;;;;;;;;5002421;28;20230;-69
2022/06/10 00:34:48;;;;;;;7.45;3.05;;;;;;;;;;5007450;28;20290;-69
2022/06/10 00:37:14;;;;;;;9.13;2.78;;;;;;;;;;5010390;28;20175;-69
2022/06/10 00:39:39;;;;;;;9.05;3.15;;;;;;;;;;5007781;28;20340;-70
2022/06/10 00:42:06;;;;;;;6.57;3.88;;;;;;;;;;5007181;28;20186;-69
2022/06/10 00:44:34;;;;;;;7.65;3.33;;;;;;;;;;5007027;28;20588;-69
2022/06/10 00:47:20;;;;;;;9.75;3.75;;;;;;;;;;5008832;28;20213;-69
2022/06/10 00:49:52;;;;;;;10.93;3.88;;;;;;;;;;5009344;28;20187;-70
2022/06/10 00:52:24;;;;;;;7.40;3.17;;;;;;;;;;5005493;28;20183;-70
2022/06/10 00:54:52;;;;;;;9.75;2.83;;;;;;;;;;5004764;28;20182;-70
2022/06/10 00:57:21;;;;;;;5.70;3.17;;;;;;;;;;5008911;28;20175;-70
2022/06/10 01:00:00;;;;;;;7.50;2.97;;;;;;;;;;5009163;28;20253;-70
2022/06/10 01:02:31;;;;;;;10.90;3.63;;;;;;;;;;5010052;28;20187;-70
2022/06/10 01:04:58;;;;;;;10.85;3.67;;;;;;;;;;5008840;28;20206;-70
2022/06/10 01:07:31;;;;;;;5.53;3.28;;;;;;;;;;5009280;28;20179;-70
2022/06/10 01:09:57;;;;;;;8.60;3.13;;;;;;;;;;5007331;28;20579;-69
2022/06/10 01:13:04;;;;;;;5.18;3.22;;;;;;;;;;5007198;28;20172;-69
2022/06/10 01:15:47;;;;;;;7.07;3.22;;;;;;;;;;5007939;28;20179;-69
2022/06/10 01:18:24;;;;;;;10.00;3.40;;;;;;;;;;5010020;28;20175;-69
2022/06/10 01:21:14;;;;;;;9.93;3.42;;;;;;;;;;5010067;28;20229;-68
2022/06/10 01:24:06;;;;;;;5.93;3.63;;;;;;;;;;5008456;28;20189;-69
2022/06/10 01:30:25;;;;;;;7.40;3.53;;;;;;;;;;4985691;28;20349;-69
2022/06/10 01:33:12;;;;;;;6.70;3.35;;;;;;;;;;4929416;29;20205;-70
2022/06/10 01:35:45;;;;;;;9.00;3.80;;;;;;;;;;5003708;28;20244;-70
2022/06/10 01:38:42;;;;;;;5.18;3.70;;;;;;;;;;5008987;28;20185;-70
2022/06/10 01:41:33;;;;;;;8.60;4.13;;;;;;;;;;5009714;28;20356;-70
2022/06/10 01:44:19;;;;;;;13.63;3.85;;;;;;;;;;5009047;28;20595;-70
2022/06/10 01:46:57;;;;;;;9.32;4.13;;;;;;;;;;5009071;28;20422;-70
2022/06/10 01:49:30;;;;;;;9.68;4.22;;;;;;;;;;5008302;28;20200;-70
2022/06/10 01:52:02;;;;;;;10.75;4.63;;;;;;;;;;5005131;28;20190;-70
2022/06/10 01:54:44;;;;;;;8.40;4.53;;;;;;;;;;5008707;28;20530;-69
2022/06/10 01:57:30;;;;;;;6.38;3.83;;;;;;;;;;5008569;28;20277;-69
2022/06/10 02:00:01;;;;;;;12.55;4.57;;;;;;;;;;5005649;28;20202;-69
2022/06/10 02:02:31;;;;;;;9.00;4.75;;;;;;;;;;5004601;28;20183;-70
2022/06/10 02:05:10;;;;;;;10.82;5.30;;;;;;;;;;5008536;28;20182;-70
2022/06/10 02:07:59;;;;;;;8.05;5.18;;;;;;;;;;5003828;28;20624;-69
2022/06/10 02:10:32;;;;;;;8.05;5.97;;;;;;;;;;5004350;28;20308;-69
2022/06/10 02:13:02;;;;;;;9.70;5.25;;;;;;;;;;5006079;28;20218;-69
2022/06/10 02:15:34;;;;;;;11.75;5.15;;;;;;;;;;5007834;28;20709;-70
2022/06/10 02:18:06;;;;;;;8.48;5.13;;;;;;;;;;5008716;28;20550;-70
2022/06/10 02:20:35;;;;;;;10.30;5.03;;;;;;;;;;5019773;28;20330;-70
2022/06/10 02:23:04;;;;;;;11.13;5.10;;;;;;;;;;5005135;28;20182;-70
2022/06/10 02:25:42;;;;;;;7.03;4.90;;;;;;;;;;5006197;28;20265;-70
2022/06/10 02:28:10;;;;;;;8.48;5.13;;;;;;;;;;5006685;28;20178;-70
2022/06/10 02:30:44;;;;;;;9.00;5.63;;;;;;;;;;5007478;28;20380;-70
2022/06/10 02:33:11;;;;;;;10.63;5.50;;;;;;;;;;5007841;28;20178;-69
2022/06/10 02:36:02;;;;;;;10.38;4.90;;;;;;;;;;5005282;28;20530;-70
2022/06/10 02:39:00;;;;;;;10.27;5.95;;;;;;;;;;5008210;28;20201;-69
2022/06/10 02:41:42;;;;;;;8.18;5.18;;;;;;;;;;5006022;28;20179;-69
2022/06/10 02:44:19;;;;;;;9.18;5.93;;;;;;;;;;5004939;28;20702;-70
2022/06/10 02:46:45;;;;;;;14.45;6.07;;;;;;;;;;5009154;28;20271;-70
2022/06/10 02:49:15;;;;;;;12.57;6.28;;;;;;;;;;5008236;28;20201;-70
2022/06/10 02:51:41;;;;;;;10.10;5.63;;;;;;;;;;5021548;28;20179;-70
2022/06/10 02:54:21;;;;;;;11.10;6.40;;;;;;;;;;5007865;28;20262;-70
2022/06/10 02:56:47;;;;;;;13.43;5.93;;;;;;;;;;5007129;28;20538;-70
2022/06/10 03:02:18;;;;;;;10.57;6.38;;;;;;;;;;5006421;28;20284;-70
2022/06/10 03:05:02;;;;;;;10.55;6.57;;;;;;;;;;5004762;28;20673;-70
2022/06/10 03:07:37;;;;;;;13.43;6.47;;;;;;;;;;5004384;28;20233;-70
2022/06/10 03:10:14;;;;;;;11.75;7.35;;;;;;;;;;5005511;28;20662;-70
2022/06/10 03:12:58;;;;;;;13.77;6.82;;;;;;;;;;5004749;28;20269;-69
2022/06/10 03:15:46;;;;;;;9.80;6.47;;;;;;;;;;5003815;28;20183;-69
2022/06/10 03:18:40;;;;;;;8.00;6.63;;;;;;;;;;5006549;28;20234;-70
2022/06/10 03:21:43;;;;;;;12.82;7.22;;;;;;;;;;5006052;28;20199;-70
2022/06/10 03:24:51;;;;;;;11.10;6.78;;;;;;;;;;5007167;28;20187;-70
2022/06/10 03:27:31;;;;;;;10.07;6.68;;;;;;;;;;4901140;29;20197;-70
2022/06/10 03:30:08;;;;;;;13.50;6.93;;;;;;;;;;4990831;28;20253;-70
2022/06/10 03:32:58;;;;;;;15.07;7.53;;;;;;;;;;5003517;28;20206;-70
2022/06/10 03:35:32;;;;;;;11.73;7.18;;;;;;;;;;5005011;28;20197;-70
2022/06/10 03:38:02;;;;;;;14.55;7.05;;;;;;;;;;5005580;28;20193;-70
2022/06/10 03:40:30;;;;;;;13.77;7.70;;;;;;;;;;5005778;28;20223;-70
2022/06/10 03:42:57;;;;;;;12.18;7.13;;;;;;;;;;5007336;28;20270;-70
2022/06/10 03:45:29;;;;;;;11.48;6.80;;;;;;;;;;5007004;28;20201;-70
2022/06/10 03:47:55;;;;;;;12.98;6.82;;;;;;;;;;5006435;28;20182;-70
2022/06/10 03:50:27;;;;;;;13.52;7.15;;;;;;;;;;5007942;28;20175;-70
2022/06/10 03:52:52;;;;;;;12.05;6.38;;;;;;;;;;5005976;28;20174;-69
2022/06/10 03:55:19;;;;;;;11.25;7.35;;;;;;;;;;5005267;28;20188;-70
2022/06/10 03:57:46;;;;;;;17.80;7.40;;;;;;;;;;5003595;28;20398;-70
2022/06/10 04:00:19;;;;;;;16.55;7.07;;;;;;;;;;5009559;28;20199;-70
2022/06/10 04:02:44;;;;;;;10.75;6.80;;;;;;;;;;5003997;28;20196;-70
2022/06/10 04:05:11;;;;;;;14.93;7.32;;;;;;;;;;5010098;28;20187;-70
2022/06/10 04:07:37;;;;;;;13.45;7.35;;;;;;;;;;5008137;28;20256;-69
2022/06/10 04:10:03;;;;;;;18.63;7.60;;;;;;;;;;5009564;28;20175;-69
2022/06/10 04:12:29;;;;;;;13.77;7.03;;;;;;;;;;5008673;28;20218;-69
2022/06/10 04:14:54;;;;;;;12.73;7.35;;;;;;;;;;5010428;28;20187;-69
2022/06/10 04:17:19;;;;;;;17.17;7.20;;;;;;;;;;5008177;28;20171;-69
2022/06/10 04:19:45;;;;;;;15.13;6.63;;;;;;;;;;5008490;28;20253;-69
2022/06/10 04:22:11;;;;;;;14.90;6.38;;;;;;;;;;5009875;28;20183;-69
2022/06/10 04:24:37;;;;;;;10.68;5.97;;;;;;;;;;5009193;28;20234;-67
2022/06/10 04:27:02;;;;;;;6.97;4.88;;;;;;;;;;5005966;28;20190;-66
2022/06/10 04:29:28;;;;;;;11.55;4.80;;;;;;;;;;5008723;28;20757;-66
2022/06/10 04:31:54;;;;;;;8.25;4.80;;;;;;;;;;5009363;28;20756;-66
2022/06/10 04:34:19;;;;;;;8.52;4.22;;;;;;;;;;5010504;28;20206;-66
2022/06/10 04:36:45;;;;;;;10.32;4.80;;;;;;;;;;5009331;28;20178;-67
2022/06/10 04:39:10;;;;;;;13.13;4.05;;;;;;;;;;5007801;28;20198;-66
2022/06/10 04:41:36;;;;;;;9.88;4.10;;;;;;;;;;5005437;28;20191;-65
2022/06/10 04:44:02;;;;;;;8.00;3.53;;;;;;;;;;5006514;28;20639;-65
2022/06/10 04:46:35;;;;;;;8.32;4.07;;;;;;;;;;5006761;28;20647;-65
2022/06/10 04:49:01;;;;;;;9.55;4.13;;;;;;;;;;5006961;28;20567;-66
2022/06/10 04:51:26;;;;;;;9.15;4.03;;;;;;;;;;5009738;28;20187;-65
2022/06/10 04:53:52;;;;;;;10.63;4.70;;;;;;;;;;5006745;28;20567;-65
2022/06/10 04:56:17;;;;;;;13.45;5.10;;;;;;;;;;5007728;28;20248;-66
2022/06/10 04:58:43;;;;;;;10.48;4.80;;;;;;;;;;5006315;28;20601;-65
2022/06/10 05:01:08;;;;;;;7.30;4.20;;;;;;;;;;5005693;28;20209;-66
2022/06/10 05:03:35;;;;;;;11.95;4.40;;;;;;;;;;5006264;28;20229;-65
2022/06/10 05:06:00;;;;;;;14.13;4.90;;;;;;;;;;5005894;28;20626;-65
2022/06/10 05:08:25;;;;;;;13.80;4.60;;;;;;;;;;5006610;28;20266;-65
2022/06/10 05:10:51;;;;;;;12.75;5.13;;;;;;;;;;5005571;28;20583;-65
2022/06/10 05:13:20;;;;;;;9.00;4.15;;;;;;;;;;5008474;28;20631;-65
2022/06/10 05:15:46;;;;;;;7.43;3.92;;;;;;;;;;5005243;28;20211;-65
2022/06/10 05:18:14;;;;;;;7.45;4.18;;;;;;;;;;5007373;28;20175;-66
2022/06/10 05:20:41;;;;;;;9.15;3.42;;;;;;;;;;5007231;28;20622;-66
2022/06/10 05:23:09;;;;;;;11.65;4.03;;;;;;;;;;5004721;28;20245;-66
2022/06/10 05:25:35;;;;;;;7.57;4.20;;;;;;;;;;5003847;28;20235;-65
2022/06/10 05:28:01;;;;;;;7.78;4.15;;;;;;;;;;5007004;28;20226;-66
2022/06/10 05:30:30;;;;;;;7.43;3.55;;;;;;;;;;5007119;28;20212;-66
2022/06/10 05:32:56;;;;;;;10.02;3.83;;;;;;;;;;5008245;28;20190;-66
2022/06/10 05:35:22;;;;;;;9.27;4.18;;;;;;;;;;5007545;28;20191;-67
2022/06/10 05:37:48;;;;;;;10.13;4.07;;;;;;;;;;5003531;28;20372;-65
2022/06/10 05:40:14;;;;;;;10.00;3.88;;;;;;;;;;5006532;28;20202;-69
2022/06/10 05:42:40;;;;;;;10.40;3.80;;;;;;;;;;5023531;28;20175;-65
2022/06/10 05:45:07;;;;;;;11.10;3.90;;;;;;;;;;5009616;28;20715;-65
2022/06/10 05:47:35;;;;;;;7.63;3.65;;;;;;;;;;5009341;28;20197;-66
2022/06/10 05:50:05;;;;;;;11.85;4.20;;;;;;;;;;5008373;28;20182;-65
2022/06/10 05:52:31;;;;;;;8.63;4.07;;;;;;;;;;5008583;28;20282;-65
2022/06/10 05:55:01;;;;;;;6.85;3.83;;;;;;;;;;5007763;28;20178;-67
2022/06/10 05:57:27;;;;;;;10.13;4.15;;;;;;;;;;5007815;28;20659;-67
2022/06/10 05:59:53;;;;;;;12.60;4.20;;;;;;;;;;5010171;28;20202;-66
2022/06/10 06:02:20;;;;;;;15.02;4.22;;;;;;;;;;5002591;28;20187;-66
2022/06/10 06:04:46;;;;;;;8.32;3.75;;;;;;;;;;5031266;28;20233;-65
2022/06/10 06:07:17;;;;;;;10.30;3.83;;;;;;;;;;5003371;28;20211;-66
2022/06/10 06:09:43;;;;;;;10.82;3.67;;;;;;;;;;5007467;28;20229;-66
2022/06/10 06:12:09;;;;;;;8.15;3.95;;;;;;;;;;5005294;28;20192;-66
2022/06/10 06:14:34;;;;;;;10.73;4.13;;;;;;;;;;5005499;28;20167;-66
2022/06/10 06:17:02;;;;;;;12.85;4.10;;;;;;;;;;5007657;28;20187;-66
2022/06/10 06:19:29;;;;;;;11.18;5.05;;;;;;;;;;5003889;28;20199;-67
2022/06/10 06:21:54;;;;;;;8.20;4.30;;;;;;;;;;5004960;28;20615;-66
2022/06/10 06:24:20;;;;;;;11.82;4.45;;;;;;;;;;5004271;28;20284;-66
2022/06/10 06:26:46;;;;;;;12.48;5.00;;;;;;;;;;5003173;28;20639;-69
2022/06/10 06:29:11;;;;;;;13.23;5.40;;;;;;;;;;5003891;28;20268;-67
2022/06/10 06:31:37;;;;;;;10.05;4.85;;;;;;;;;;5000446;28;20209;-66
2022/06/10 06:34:02;;;;;;;16.38;5.75;;;;;;;;;;5001032;28;20199;-66
2022/06/10 06:36:31;;;;;;;13.82;4.90;;;;;;;;;;5002376;28;20705;-66
2022/06/10 06:38:57;;;;;;;17.05;5.72;;;;;;;;;;5002613;28;20596;-65
2022/06/10 06:41:22;;;;;;;12.55;5.60;;;;;;;;;;5003029;28;20202;-65
2022/06/10 06:43:48;;;;;;;12.15;5.13;;;;;;;;;;5006420;28;20458;-65
2022/06/10 06:46:16;;;;;;;9.65;5.43;;;;;;;;;;5006353;28;20217;-66
2022/06/10 06:48:43;;;;;;;10.98;6.05;;;;;;;;;;5004872;28;20201;-65
2022/06/10 06:51:09;;;;;;;12.55;5.80;;;;;;;;;;5005755;28;20218;-66
2022/06/10 06:53:36;;;;;;;13.77;5.50;;;;;;;;;;5002774;28;20199;-66
2022/06/10 06:56:03;;;;;;;11.02;5.20;;;;;;;;;;5004914;28;20218;-66
2022/06/10 06:58:28;;;;;;;12.63;5.05;;;;;;;;;;5002447;28;20187;-65
2022/06/10 07:00:54;;;;;;;12.13;5.43;;;;;;;;;;5000826;28;20201;-66
2022/06/10 07:03:20;;;;;;;7.63;4.25;;;;;;;;;;5006351;28;20199;-66
2022/06/10 07:05:46;;;;;;;11.90;4.57;;;;;;;;;;4991515;28;20190;-66
2022/06/10 07:08:12;;;;;;;7.78;3.67;;;;;;;;;;5003702;28;20227;-66
2022/06/10 07:10:38;;;;;;;7.60;3.92;;;;;;;;;;5003612;28;20210;-66
2022/06/10 07:13:03;;;;;;;10.10;4.03;;;;;;;;;;5004310;28;20199;-66
2022/06/10 07:15:28;;;;;;;12.27;3.92;;;;;;;;;;5002059;28;20183;-66
2022/06/10 07:17:54;;;;;;;10.23;3.65;;;;;;;;;;5000859;28;20171;-66
2022/06/10 07:20:41;;;;;;;9.90;3.55;;;;;;;;;;4999583;28;20204;-66
2022/06/10 07:23:06;;;;;;;8.60;3.30;;;;;;;;;;5001763;28;20269;-69
2022/06/10 07:25:33;;;;;;;8.85;4.13;;;;;;;;;;4999659;28;20324;-66
2022/06/10 07:27:59;;;;;;;8.02;4.07;;;;;;;;;;5004391;28;20179;-66
2022/06/10 07:30:26;;;;;;;11.23;3.88;;;;;;;;;;5003576;28;20175;-68
2022/06/10 07:32:52;;;;;;;7.38;3.50;;;;;;;;;;5007243;28;20185;-67
2022/06/10 07:35:18;;;;;;;9.90;3.97;;;;;;;;;;5006093;28;20179;-68
2022/06/10 07:37:45;;;;;;;6.22;3.97;;;;;;;;;;5005994;28;20541;-69
2022/06/10 07:41:56;;;;;;;7.03;3.47;;;;;;;;;;5011183;28;20234;-66
2022/06/10 07:43:00;;;;;;;11.10;3.50;;;;;;;;;;5011260;28;20217;-70
2022/06/10 07:45:25;;;;;;;8.30;3.10;;;;;;;;;;5010856;28;20643;-67
2022/06/10 07:47:51;;;;;;;6.82;2.80;;;;;;;;;;5004820;28;20176;-69
2022/06/10 07:50:17;;;;;;;7.90;2.92;;;;;;;;;;5006853;28;20179;-69
2022/06/10 07:52:42;;;;;;;7.22;2.60;;;;;;;;;;5004010;28;20608;-66
2022/06/10 07:55:08;;;;;;;12.43;3.17;;;;;;;;;;5000054;28;20211;-68
2022/06/10 07:57:33;;;;;;;9.13;3.03;;;;;;;;;;5003390;28;20190;-67
2022/06/10 07:59:58;;;;;;;10.20;2.63;;;;;;;;;;5002555;28;20225;-68
2022/06/10 08:02:24;;;;;;;9.02;2.83;;;;;;;;;;5007392;28;20175;-68
2022/06/10 08:04:49;;;;;;;13.57;3.63;;;;;;;;;;5005805;28;20190;-67
2022/06/10 08:07:15;;;;;;;11.90;2.80;;;;;;;;;;5011745;28;20193;-67
2022/06/10 08:09:40;;;;;;;8.00;3.03;;;;;;;;;;5007658;28;20179;-67
2022/06/10 08:12:06;;;;;;;9.65;3.00;;;;;;;;;;5010582;28;20224;-70
2022/06/10 08:14:31;;;;;;;7.93;2.72;;;;;;;;;;5005076;28;20279;-71
2022/06/10 08:16:56;;;;;;;8.77;3.08;;;;;;;;;;5006080;28;20269;-67
2022/06/10 08:19:22;;;;;;;6.00;2.58;;;;;;;;;;5002016;28;20199;-67
2022/06/10 08:24:31;;;;;;;6.55;2.80;;;;;;;;;;5010071;28;20272;-68
2022/06/10 08:26:57;;;;;;;8.50;2.95;;;;;;;;;;5006502;28;20278;-67
2022/06/10 08:29:22;;;;;;;7.72;2.70;;;;;;;;;;5009418;28;20209;-67
2022/06/10 08:31:48;;;;;;;7.57;2.30;;;;;;;;;;5009507;28;20198;-69
2022/06/10 08:34:14;;;;;;;8.15;2.78;;;;;;;;;;5010864;28;20201;-66
2022/06/10 08:36:40;;;;;;;6.63;2.50;;;;;;;;;;5011364;28;20265;-66
2022/06/10 08:39:06;;;;;;;7.10;2.45;;;;;;;;;;5008823;28;20233;-66
2022/06/10 08:41:43;;;;;;;6.88;2.75;;;;;;;;;;5009563;28;20203;-69
2022/06/10 08:44:11;;;;;;;6.75;2.88;;;;;;;;;;5007822;28;20557;-66
2022/06/10 08:46:52;;;;;;;8.77;2.50;;;;;;;;;;5009669;28;20710;-67
2022/06/10 08:49:33;;;;;;;6.68;2.92;;;;;;;;;;4998653;28;20212;-67
2022/06/10 08:52:19;;;;;;;8.77;2.90;;;;;;;;;;5010903;28;20198;-68
2022/06/10 08:55:14;;;;;;;7.43;2.80;;;;;;;;;;5006462;28;20187;-68
2022/06/10 08:57:43;;;;;;;9.15;3.38;;;;;;;;;;5006289;28;20250;-70
2022/06/10 09:00:24;;;;;;;7.05;2.72;;;;;;;;;;4993975;28;20210;-69
2022/06/10 09:02:57;;;;;;;8.15;2.90;;;;;;;;;;4990519;28;20207;-67
2022/06/10 09:05:36;;;;;;;9.23;3.13;;;;;;;;;;5034980;28;20205;-69
2022/06/10 09:08:06;;;;;;;6.50;3.03;;;;;;;;;;4997204;28;20550;-69
2022/06/10 09:10:54;;;;;;;6.80;3.47;;;;;;;;;;5003577;28;20171;-69
2022/06/10 09:13:36;;;;;;;8.07;3.00;;;;;;;;;;4992670;28;20187;-68
2022/06/10 09:16:12;;;;;;;11.05;3.72;;;;;;;;;;5007937;28;20182;-67
2022/06/10 09:18:54;;;;;;;8.38;3.40;;;;;;;;;;5020165;28;20268;-67
2022/06/10 09:21:46;;;;;;;9.55;3.30;;;;;;;;;;5010491;28;20289;-67
2022/06/10 09:24:20;;;;;;;7.88;3.17;;;;;;;;;;4996351;28;20182;-69
2022/06/10 09:26:58;;;;;;;8.68;3.40;;;;;;;;;;4995477;28;20250;-68
2022/06/10 09:29:23;;;;;;;8.35;3.08;;;;;;;;;;4993575;28;20261;-67
2022/06/10 09:32:10;;;;;;;8.80;4.00;;;;;;;;;;4997291;28;20286;-68
2022/06/10 09:34:55;;;;;;;9.50;4.30;;;;;;;;;;5009502;28;20528;-71
2022/06/10 09:37:28;;;;;;;7.55;3.70;;;;;;;;;;5009761;28;20242;-67
2022/06/10 09:43:11;;;;;;;11.35;4.43;;;;;;;;;;4991688;28;20212;-66
2022/06/10 09:45:47;;;;;;;9.60;3.50;;;;;;;;;;5003208;28;20217;-66
2022/06/10 09:48:33;;;;;;;9.57;2.83;;;;;;;;;;5007254;28;20201;-68
2022/06/10 09:51:24;;;;;;;7.80;2.92;;;;;;;;;;5009928;28;20183;-68
2022/06/10 09:54:02;;;;;;;5.68;3.15;;;;;;;;;;5008703;28;20654;-67
2022/06/10 09:56:40;;;;;;;11.93;3.53;;;;;;;;;;5008136;28;20194;-67
2022/06/10 09:59:44;;;;;;;6.72;2.78;;;;;;;;;;5007912;28;20253;-70
2022/06/10 10:02:21;;;;;;;5.45;2.50;;;;;;;;;;4992840;28;20253;-69
2022/06/10 10:05:01;;;;;;;6.18;2.50;;;;;;;;;;5000920;28;20183;-69
2022/06/10 10:07:47;;;;;;;9.23;2.33;;;;;;;;;;4996778;28;20187;-67
2022/06/10 10:10:29;;;;;;;6.05;2.53;;;;;;;;;;5005264;28;20171;-69
2022/06/10 10:13:25;;;;;;;7.55;3.30;;;;;;;;;;4996150;28;20186;-68
2022/06/10 10:16:10;;;;;;;7.90;2.58;;;;;;;;;;5003938;28;20179;-71
2022/06/10 10:19:11;;;;;;;5.20;2.03;;;;;;;;;;5006863;28;21092;-67
2022/06/10 10:22:04;;;;;;;7.97;2.10;;;;;;;;;;5006862;28;20206;-68
2022/06/10 10:24:37;;;;;;;7.45;2.33;;;;;;;;;;5002514;28;20235;-70
2022/06/10 10:27:20;;;;;;;6.00;2.20;;;;;;;;;;5007748;28;20785;-69
2022/06/10 10:29:51;;;;;;;7.85;2.85;;;;;;;;;;5009673;28;20185;-70
2022/06/10 10:32:30;;;;;;;10.48;2.30;;;;;;;;;;5008045;28;20198;-68
2022/06/10 10:35:04;;;;;;;6.45;1.88;;;;;;;;;;5005099;28;20175;-67
2022/06/10 10:37:35;;;;;;;9.32;2.30;;;;;;;;;;5002711;28;20183;-70
2022/06/10 10:40:19;;;;;;;9.73;2.53;;;;;;;;;;5005866;28;20195;-68
2022/06/10 10:42:47;;;;;;;4.80;1.88;;;;;;;;;;5006308;28;20262;-70
2022/06/10 10:45:32;;;;;;;8.07;2.20;;;;;;;;;;5008306;28;20175;-71
2022/06/10 10:48:19;;;;;;;6.32;2.00;;;;;;;;;;5007706;28;20191;-71
2022/06/10 10:50:59;;;;;;;10.40;1.90;;;;;;;;;;5007500;28;20174;-70
2022/06/10 10:53:30;;;;;;;8.35;2.10;;;;;;;;;;5003776;28;20187;-69
2022/06/10 10:55:59;;;;;;;8.50;1.88;;;;;;;;;;4991457;28;20253;-70
2022/06/10 10:58:33;;;;;;;9.95;2.38;;;;;;;;;;5000580;28;20603;-67
2022/06/10 11:01:05;;;;;;;7.30;2.50;;;;;;;;;;5001449;28;20264;-69
2022/06/10 11:03:49;;;;;;;6.93;1.58;;;;;;;;;;4974988;28;20203;-68
2022/06/10 11:06:28;;;;;;;6.10;2.17;;;;;;;;;;4992887;28;20262;-68
2022/06/10 11:09:04;;;;;;;5.82;1.70;;;;;;;;;;5001657;28;20178;-68
2022/06/10 11:11:36;;;;;;;6.55;2.15;;;;;;;;;;5002294;28;20298;-69
2022/06/10 11:14:16;;;;;;;5.38;2.30;;;;;;;;;;5006112;28;20178;-68
2022/06/10 11:17:00;;;;;;;5.10;2.22;;;;;;;;;;4998818;28;20187;-69
2022/06/10 11:19:31;;;;;;;6.65;2.13;;;;;;;;;;5007782;28;20179;-68
2022/06/10 11:22:02;;;;;;;9.75;2.35;;;;;;;;;;5006901;28;20306;-70
2022/06/10 11:24:35;;;;;;;9.93;2.00;;;;;;;;;;4998621;28;20183;-70
2022/06/10 11:27:19;;;;;;;6.97;2.03;;;;;;;;;;5005916;28;20189;-70
2022/06/10 11:30:00;;;;;;;4.22;1.70;;;;;;;;;;5003204;28;20179;-69
2022/06/10 11:32:31;;;;;;;4.72;2.00;;;;;;;;;;4995026;28;20210;-69
2022/06/10 11:35:00;;;;;;;10.77;2.33;;;;;;;;;;5032107;28;20585;-66
2022/06/10 11:37:32;;;;;;;7.07;2.05;;;;;;;;;;5007693;28;20711;-70
2022/06/10 11:40:11;;;;;;;7.80;2.00;;;;;;;;;;5008439;28;20807;-68
2022/06/10 11:42:46;;;;;;;4.30;1.85;;;;;;;;;;5007535;28;20205;-68
2022/06/10 11:45:25;;;;;;;5.60;1.85;;;;;;;;;;5008225;28;20174;-69
2022/06/10 11:47:56;;;;;;;8.52;1.92;;;;;;;;;;5006893;28;20182;-67
2022/06/10 11:50:29;;;;;;;4.35;2.10;;;;;;;;;;5007517;28;20194;-68
2022/06/10 11:53:02;;;;;;;5.32;1.73;;;;;;;;;;5001682;28;20651;-69
2022/06/10 11:55:35;;;;;;;7.50;2.03;;;;;;;;;;4998339;28;20219;-67
2022/06/10 12:01:02;;;;;;;9.40;1.50;;;;;;;;;;4997676;28;20313;-69
2022/06/10 12:04:21;;;;;;;5.78;1.83;;;;;;;;;;4990171;28;20798;-70
2022/06/10 12:07:04;;;;;;;4.75;1.17;;;;;;;;;;4920554;29;20301;-67
2022/06/10 12:09:35;;;;;;;7.47;1.83;;;;;;;;;;4916387;29;20182;-68
2022/06/10 12:12:04;;;;;;;11.43;2.50;;;;;;;;;;4969890;28;20235;-69
2022/06/10 12:14:31;;;;;;;6.10;1.42;;;;;;;;;;5007133;28;20258;-67
2022/06/10 12:17:04;;;;;;;5.15;1.80;;;;;;;;;;5002164;28;20647;-68
2022/06/10 12:19:41;;;;;;;6.68;1.80;;;;;;;;;;5008533;28;20316;-68
2022/06/10 12:22:09;;;;;;;5.82;1.42;;;;;;;;;;5005465;28;20220;-68
2022/06/10 12:24:35;;;;;;;4.32;1.55;;;;;;;;;;5018676;28;20330;-66
2022/06/10 12:27:03;;;;;;;10.70;1.80;;;;;;;;;;5011224;28;20262;-66
2022/06/10 12:29:45;;;;;;;10.85;1.85;;;;;;;;;;5005284;28;20183;-68
2022/06/10 12:32:25;;;;;;;4.28;1.60;;;;;;;;;;4997649;28;20697;-67
2022/06/10 12:34:58;;;;;;;5.75;1.77;;;;;;;;;;5011597;28;20716;-67
2022/06/10 12:37:46;;;;;;;8.65;2.33;;;;;;;;;;5010842;28;20643;-69
2022/06/10 12:40:18;;;;;;;5.43;1.80;;;;;;;;;;5011225;28;20725;-67
2022/06/10 12:43:05;;;;;;;8.38;2.17;;;;;;;;;;5007996;28;20638;-67
2022/06/10 12:45:37;;;;;;;9.02;1.85;;;;;;;;;;4997229;28;20198;-67
2022/06/10 12:48:22;;;;;;;9.63;1.83;;;;;;;;;;5010080;28;20515;-68
2022/06/10 12:51:04;;;;;;;6.47;1.90;;;;;;;;;;4998809;28;20186;-68
2022/06/10 12:54:14;;;;;;;8.27;1.90;;;;;;;;;;5011694;28;20261;-70
2022/06/10 12:56:40;;;;;;;7.90;1.77;;;;;;;;;;4940788;29;20568;-67
2022/06/10 12:59:08;;;;;;;9.48;2.28;;;;;;;;;;4954131;28;20194;-70
2022/06/10 13:01:33;;;;;;;6.07;1.83;;;;;;;;;;4976819;28;20230;-68
2022/06/10 13:04:00;;;;;;;8.80;1.83;;;;;;;;;;5005891;28;20210;-69
2022/06/10 13:06:45;;;;;;;8.27;2.00;;;;;;;;;;5009271;28;20179;-69
2022/06/10 13:09:10;;;;;;;6.40;2.22;;;;;;;;;;4997735;28;20337;-70
2022/06/10 13:11:49;;;;;;;6.70;2.28;;;;;;;;;;5001216;28;20266;-69
2022/06/10 13:14:29;;;;;;;7.57;1.90;;;;;;;;;;4996422;28;20679;-67
2022/06/10 13:16:58;;;;;;;6.07;2.10;;;;;;;;;;5004423;28;20210;-67
2022/06/10 13:19:49;;;;;;;10.18;2.10;;;;;;;;;;5001706;28;20214;-66
2022/06/10 13:22:17;;;;;;;9.90;1.88;;;;;;;;;;5004461;28;20183;-67
2022/06/10 13:24:52;;;;;;;6.93;2.38;;;;;;;;;;5002647;28;20246;-68
2022/06/10 13:27:39;;;;;;;7.82;2.03;;;;;;;;;;5011373;28;20186;-68
2022/06/10 13:30:14;;;;;;;8.40;2.28;;;;;;;;;;5012427;28;20175;-67
2022/06/10 13:32:42;;;;;;;8.90;2.10;;;;;;;;;;5024663;28;20206;-67
2022/06/10 13:35:15;;;;;;;6.72;1.60;;;;;;;;;;5016860;28;20182;-68
2022/06/10 13:37:41;;;;;;;8.00;2.17;;;;;;;;;;5009770;28;20267;-69
2022/06/10 13:40:11;;;;;;;10.65;2.05;;;;;;;;;;5011140;28;20709;-67
2022/06/10 13:42:40;;;;;;;6.47;2.03;;;;;;;;;;5008703;28;20190;-69
2022/06/10 13:45:18;;;;;;;8.82;2.53;;;;;;;;;;5013724;28;20269;-67
2022/06/10 13:48:19;;;;;;;6.90;2.22;;;;;;;;;;5000295;28;20243;-68
2022/06/10 13:51:24;;;;;;;6.53;2.25;;;;;;;;;;5007275;28;20575;-68
2022/06/10 13:54:09;;;;;;;8.18;2.17;;;;;;;;;;5012173;28;20646;-68
2022/06/10 13:56:42;;;;;;;8.65;2.20;;;;;;;;;;4997972;28;20182;-69
2022/06/10 13:59:30;;;;;;;7.60;2.20;;;;;;;;;;5010332;28;20278;-68
2022/06/10 14:02:01;;;;;;;6.35;2.30;;;;;;;;;;5008101;28;20199;-67
2022/06/10 14:04:32;;;;;;;12.43;2.05;;;;;;;;;;4998174;28;20694;-67
2022/06/10 14:07:04;;;;;;;11.77;2.17;;;;;;;;;;5009668;28;20270;-67
2022/06/10 14:09:34;;;;;;;8.90;2.10;;;;;;;;;;4997193;28;20569;-68
2022/06/10 14:12:23;;;;;;;8.63;2.08;;;;;;;;;;5011509;28;20205;-68
2022/06/10 14:14:49;;;;;;;7.40;1.80;;;;;;;;;;4999522;28;20642;-70
2022/06/10 14:17:18;;;;;;;6.57;2.25;;;;;;;;;;5006131;28;20600;-69
2022/06/10 14:19:49;;;;;;;8.50;2.58;;;;;;;;;;4999123;28;20183;-66
2022/06/10 14:22:30;;;;;;;6.40;2.22;;;;;;;;;;5007466;28;20234;-66
2022/06/10 14:25:14;;;;;;;5.85;2.00;;;;;;;;;;4992667;28;20227;-67
2022/06/10 14:27:56;;;;;;;9.00;2.92;;;;;;;;;;5005338;28;20523;-67
2022/06/10 14:30:30;;;;;;;7.50;2.38;;;;;;;;;;5005271;28;20183;-68
2022/06/10 14:33:00;;;;;;;7.00;2.53;;;;;;;;;;5007380;28;20209;-67
2022/06/10 14:35:25;;;;;;;4.90;2.20;;;;;;;;;;5008025;28;20179;-67
2022/06/10 14:38:09;;;;;;;7.75;2.65;;;;;;;;;;5000411;28;20827;-67
2022/06/10 14:40:35;;;;;;;7.03;2.40;;;;;;;;;;5002824;28;20209;-69
2022/06/10 14:43:17;;;;;;;7.40;2.58;;;;;;;;;;5004634;28;20179;-66
2022/06/10 14:45:45;;;;;;;6.50;2.67;;;;;;;;;;5007991;28;20658;-68
2022/06/10 14:48:32;;;;;;;6.93;2.30;;;;;;;;;;5008439;28;20178;-67
2022/06/10 14:51:16;;;;;;;9.38;2.53;;;;;;;;;;5007201;28;20186;-70
2022/06/10 14:53:56;;;;;;;6.03;3.22;;;;;;;;;;5006779;28;20201;-67
2022/06/10 14:56:33;;;;;;;10.77;2.33;;;;;;;;;;5005542;28;20190;-69
2022/06/10 14:58:58;;;;;;;6.40;2.47;;;;;;;;;;5006192;28;20190;-68
2022/06/10 15:01:27;;;;;;;10.82;3.60;;;;;;;;;;5004164;28;20210;-68
2022/06/10 15:03:53;;;;;;;6.55;2.63;;;;;;;;;;5003509;28;20237;-68
2022/06/10 15:06:23;;;;;;;7.35;2.35;;;;;;;;;;5003220;28;20537;-66
2022/06/10 15:08:53;;;;;;;9.48;3.30;;;;;;;;;;5033211;28;20174;-70
2022/06/10 15:11:19;;;;;;;8.57;2.90;;;;;;;;;;5039463;28;20175;-67
2022/06/10 15:13:46;;;;;;;7.57;2.72;;;;;;;;;;5007993;28;20175;-67
2022/06/10 15:16:15;;;;;;;9.18;2.75;;;;;;;;;;5007641;28;20183;-67
2022/06/10 15:18:42;;;;;;;8.65;2.55;;;;;;;;;;5005000;28;20189;-67
2022/06/10 15:21:13;;;;;;;7.75;2.92;;;;;;;;;;5005198;28;20210;-67
2022/06/10 15:23:40;;;;;;;9.05;2.58;;;;;;;;;;5005417;28;20183;-69
2022/06/10 15:26:06;;;;;;;8.02;3.20;;;;;;;;;;5006223;28;21063;-66
2022/06/10 15:28:33;;;;;;;7.72;3.45;;;;;;;;;;5008179;28;20201;-66